createdAt,value
2015-07-12T00:00:00.923Z,95841
2015-07-12T00:00:19.298Z,95835
2015-07-12T00:00:37.829Z,95827
2015-07-12T00:00:56.550Z,95836
2015-07-12T00:01:15.097Z,95830
2015-07-12T00:01:33.581Z,95822
2015-07-12T00:01:52.097Z,95830
2015-07-12T00:02:10.474Z,95835
2015-07-12T00:02:29.068Z,95832
2015-07-12T00:02:47.536Z,95835
2015-07-12T00:03:06.008Z,95841
2015-07-12T00:03:24.524Z,95829
2015-07-12T00:03:43.149Z,95835
2015-07-12T00:04:01.680Z,95829
2015-07-12T00:04:20.401Z,95846
2015-07-12T00:04:39.119Z,95838
2015-07-12T00:04:57.713Z,95835
2015-07-12T00:05:16.153Z,95835
2015-07-12T00:05:34.621Z,95830
2015-07-12T00:05:53.075Z,95833
2015-07-12T00:06:11.559Z,95824
2015-07-12T00:06:30.388Z,95830
2015-07-12T00:06:48.810Z,95830
2015-07-12T00:07:07.201Z,95833
2015-07-12T00:07:25.657Z,95842
2015-07-12T00:07:44.032Z,95839
2015-07-12T00:08:02.422Z,95831
2015-07-12T00:08:21.063Z,95834
2015-07-12T00:08:39.690Z,95831
2015-07-12T00:08:58.065Z,95828
2015-07-12T00:09:16.534Z,95831
2015-07-12T00:09:35.286Z,95828
2015-07-12T00:09:53.770Z,95828
2015-07-12T00:10:12.145Z,95831
2015-07-12T00:10:30.754Z,95834
2015-07-12T00:10:49.210Z,95832
2015-07-12T00:11:07.647Z,95829
2015-07-12T00:11:26.178Z,95832
2015-07-12T00:11:44.555Z,95831
2015-07-12T00:12:02.930Z,95837
2015-07-12T00:12:21.321Z,95828
2015-07-12T00:12:39.868Z,95834
2015-07-12T00:12:58.479Z,95828
2015-07-12T00:13:17.135Z,95837
2015-07-12T00:13:35.526Z,95831
2015-07-12T00:13:54.137Z,95834
2015-07-12T00:14:12.669Z,95831
2015-07-12T00:14:31.403Z,95834
2015-07-12T00:14:49.936Z,95826
2015-07-12T00:15:08.483Z,95840
2015-07-12T00:15:26.921Z,95836
2015-07-12T00:15:45.374Z,95830
2015-07-12T00:16:03.891Z,95830
2015-07-12T00:16:22.360Z,95831
2015-07-12T00:16:40.720Z,95833
2015-07-12T00:16:59.470Z,95839
2015-07-12T00:17:17.893Z,95824
2015-07-12T00:17:36.425Z,95836
2015-07-12T00:17:54.893Z,95831
2015-07-12T00:18:13.350Z,95828
2015-07-12T00:18:31.725Z,95828
2015-07-12T00:18:50.100Z,95839
2015-07-12T00:19:08.615Z,95828
2015-07-12T00:19:27.117Z,95836
2015-07-12T00:19:45.492Z,95828
2015-07-12T00:20:03.961Z,95837
2015-07-12T00:20:22.509Z,95826
2015-07-12T00:20:41.024Z,95835
2015-07-12T00:20:59.790Z,95836
2015-07-12T00:21:18.243Z,95827
2015-07-12T00:21:36.652Z,95827
2015-07-12T00:21:55.340Z,95835
2015-07-12T00:22:13.793Z,95825
2015-07-12T00:22:32.279Z,95831
2015-07-12T00:22:50.764Z,95836
2015-07-12T00:23:09.139Z,95833
2015-07-12T00:23:27.889Z,95821
2015-07-12T00:23:46.735Z,95829
2015-07-12T00:24:05.297Z,95838
2015-07-12T00:24:23.735Z,95830
2015-07-12T00:24:42.205Z,95835
2015-07-12T00:25:00.846Z,95835
2015-07-12T00:25:19.268Z,95835
2015-07-12T00:25:37.783Z,95832
2015-07-12T00:25:56.410Z,95826
2015-07-12T00:26:14.942Z,95834
2015-07-12T00:26:33.364Z,95838
2015-07-12T00:26:52.069Z,95827
2015-07-12T00:27:10.725Z,95836
2015-07-12T00:27:29.116Z,95830
2015-07-12T00:27:47.647Z,95836
2015-07-12T00:28:06.133Z,95827
2015-07-12T00:28:24.539Z,95835
2015-07-12T00:28:43.180Z,95823
2015-07-12T00:29:01.635Z,95823
2015-07-12T00:29:20.135Z,95830
2015-07-12T00:29:38.729Z,95833
2015-07-12T00:29:56.651Z,95825
2015-07-12T00:30:15.168Z,95833
2015-07-12T00:30:33.622Z,95824
2015-07-12T00:30:52.012Z,95836
2015-07-12T00:31:10.514Z,95830
2015-07-12T00:31:29.108Z,95830
2015-07-12T00:31:47.608Z,95829
2015-07-12T00:32:05.983Z,95835
2015-07-12T00:32:24.517Z,95829
2015-07-12T00:32:43.002Z,95832
2015-07-12T00:33:01.533Z,95821
2015-07-12T00:33:19.893Z,95832
2015-07-12T00:33:38.503Z,95833
2015-07-12T00:33:56.909Z,95831
2015-07-12T00:34:15.503Z,95828
2015-07-12T00:34:34.162Z,95830
2015-07-12T00:34:52.537Z,95827
2015-07-12T00:35:11.052Z,95836
2015-07-12T00:35:29.710Z,95839
2015-07-12T00:35:48.163Z,95834
2015-07-12T00:36:06.741Z,95833
2015-07-12T00:36:25.319Z,95839
2015-07-12T00:36:44.166Z,95829
2015-07-12T00:37:02.650Z,95838
2015-07-12T00:37:21.135Z,95833
2015-07-12T00:37:39.512Z,95838
2015-07-12T00:37:57.902Z,95835
2015-07-12T00:38:16.433Z,95833
2015-07-12T00:38:34.887Z,95830
2015-07-12T00:38:53.514Z,95831
2015-07-12T00:39:12.139Z,95831
2015-07-12T00:39:30.514Z,95830
2015-07-12T00:39:49.016Z,95827
2015-07-12T00:40:07.594Z,95833
2015-07-12T00:40:26.000Z,95844
2015-07-12T00:40:44.500Z,95836
2015-07-12T00:41:02.939Z,95833
2015-07-12T00:41:21.361Z,95838
2015-07-12T00:41:39.752Z,95833
2015-07-12T00:41:58.395Z,95839
2015-07-12T00:42:16.832Z,95839
2015-07-12T00:42:35.207Z,95830
2015-07-12T00:42:54.129Z,95833
2015-07-12T00:43:12.522Z,95836
2015-07-12T00:43:31.115Z,95839
2015-07-12T00:43:49.506Z,95838
2015-07-12T00:44:08.009Z,95836
2015-07-12T00:44:26.431Z,95831
2015-07-12T00:44:44.946Z,95825
2015-07-12T00:45:03.587Z,95837
2015-07-12T00:45:21.964Z,95831
2015-07-12T00:45:40.527Z,95840
2015-07-12T00:45:58.902Z,95837
2015-07-12T00:46:17.294Z,95834
2015-07-12T00:46:35.747Z,95847
2015-07-12T00:46:54.513Z,95841
2015-07-12T00:47:12.857Z,95835
2015-07-12T00:47:31.561Z,95841
2015-07-12T00:47:49.951Z,95833
2015-07-12T00:48:08.686Z,95844
2015-07-12T00:48:27.189Z,95836
2015-07-12T00:48:45.626Z,95841
2015-07-12T00:49:04.001Z,95838
2015-07-12T00:49:22.454Z,95838
2015-07-12T00:49:40.924Z,95835
2015-07-12T00:49:59.549Z,95841
2015-07-12T00:50:17.955Z,95829
2015-07-12T00:50:36.349Z,95846
2015-07-12T00:50:54.818Z,95833
2015-07-12T00:51:13.208Z,95828
2015-07-12T00:51:31.599Z,95836
2015-07-12T00:51:50.039Z,95831
2015-07-12T00:52:08.632Z,95831
2015-07-12T00:52:27.132Z,95836
2015-07-12T00:52:45.509Z,95836
2015-07-12T00:53:04.181Z,95831
2015-07-12T00:53:22.775Z,95834
2015-07-12T00:53:41.401Z,95822
2015-07-12T00:53:59.776Z,95836
2015-07-12T00:54:18.167Z,95837
2015-07-12T00:54:36.557Z,95831
2015-07-12T00:54:54.951Z,95831
2015-07-12T00:55:13.310Z,95825
2015-07-12T00:55:31.810Z,95839
2015-07-12T00:55:50.154Z,95831
2015-07-12T00:56:08.515Z,95828
2015-07-12T00:56:26.906Z,95831
2015-07-12T00:56:45.281Z,95831
2015-07-12T00:57:03.705Z,95828
2015-07-12T00:57:21.955Z,95831
2015-07-12T00:57:40.392Z,95833
2015-07-12T00:57:58.783Z,95844
2015-07-12T00:58:17.176Z,95841
2015-07-12T00:58:35.535Z,95836
2015-07-12T00:58:53.910Z,95842
2015-07-12T00:59:12.287Z,95831
2015-07-12T00:59:30.646Z,95831
2015-07-12T00:59:49.037Z,95840
2015-07-12T01:00:07.396Z,95839
2015-07-12T01:00:25.836Z,95834
2015-07-12T01:00:44.211Z,95837
2015-07-12T01:01:02.617Z,95834
2015-07-12T01:01:20.994Z,95831
2015-07-12T01:01:38.713Z,95826
2015-07-12T01:01:57.103Z,95835
2015-07-12T01:02:15.478Z,95841
2015-07-12T01:02:33.872Z,95838
2015-07-12T01:02:52.263Z,95838
2015-07-12T01:03:10.622Z,95838
2015-07-12T01:03:28.998Z,95846
2015-07-12T01:03:47.389Z,95838
2015-07-12T01:04:05.764Z,95841
2015-07-12T01:04:24.123Z,95836
2015-07-12T01:04:42.516Z,95830
2015-07-12T01:05:00.891Z,95835
2015-07-12T01:05:19.266Z,95829
2015-07-12T01:05:37.658Z,95835
2015-07-12T01:05:56.111Z,95838
2015-07-12T01:06:14.299Z,95841
2015-07-12T01:06:32.705Z,95838
2015-07-12T01:06:51.099Z,95837
2015-07-12T01:07:09.474Z,95838
2015-07-12T01:07:27.864Z,95833
2015-07-12T01:07:46.257Z,95833
2015-07-12T01:08:04.726Z,95844
2015-07-12T01:08:23.101Z,95833
2015-07-12T01:08:41.476Z,95842
2015-07-12T01:08:59.900Z,95841
2015-07-12T01:09:18.275Z,95838
2015-07-12T01:09:36.650Z,95838
2015-07-12T01:09:55.026Z,95841
2015-07-12T01:10:12.760Z,95836
2015-07-12T01:10:31.135Z,95836
2015-07-12T01:10:49.510Z,95830
2015-07-12T01:11:07.231Z,95844
2015-07-12T01:11:25.637Z,95841
2015-07-12T01:11:44.028Z,95836
2015-07-12T01:12:02.406Z,95841
2015-07-12T01:12:20.812Z,95835
2015-07-12T01:12:39.187Z,95835
2015-07-12T01:12:57.546Z,95846
2015-07-12T01:13:15.922Z,95835
2015-07-12T01:13:34.297Z,95847
2015-07-12T01:13:52.891Z,95847
2015-07-12T01:14:11.316Z,95833
2015-07-12T01:14:29.878Z,95847
2015-07-12T01:14:48.253Z,95842
2015-07-12T01:15:06.644Z,95837
2015-07-12T01:15:25.037Z,95846
2015-07-12T01:15:43.521Z,95843
2015-07-12T01:16:02.115Z,95842
2015-07-12T01:16:20.648Z,95842
2015-07-12T01:16:39.414Z,95839
2015-07-12T01:16:57.773Z,95845
2015-07-12T01:17:16.417Z,95839
2015-07-12T01:17:34.854Z,95844
2015-07-12T01:17:53.229Z,95849
2015-07-12T01:18:11.667Z,95838
2015-07-12T01:18:30.215Z,95838
2015-07-12T01:18:48.652Z,95841
2015-07-12T01:19:07.043Z,95836
2015-07-12T01:19:25.496Z,95836
2015-07-12T01:19:44.092Z,95836
2015-07-12T01:20:02.748Z,95839
2015-07-12T01:20:21.295Z,95845
2015-07-12T01:20:39.781Z,95834
2015-07-12T01:20:58.312Z,95837
2015-07-12T01:21:16.765Z,95845
2015-07-12T01:21:35.203Z,95845
2015-07-12T01:21:53.612Z,95847
2015-07-12T01:22:12.175Z,95844
2015-07-12T01:22:30.925Z,95839
2015-07-12T01:22:49.364Z,95833
2015-07-12T01:23:07.958Z,95837
2015-07-12T01:23:26.333Z,95835
2015-07-12T01:23:44.802Z,95840
2015-07-12T01:24:03.288Z,95835
2015-07-12T01:24:21.726Z,95826
2015-07-12T01:24:40.272Z,95837
2015-07-12T01:24:58.712Z,95840
2015-07-12T01:25:17.165Z,95835
2015-07-12T01:25:35.696Z,95832
2015-07-12T01:25:54.431Z,95840
2015-07-12T01:26:12.869Z,95832
2015-07-12T01:26:31.307Z,95835
2015-07-12T01:26:49.807Z,95835
2015-07-12T01:27:08.232Z,95840
2015-07-12T01:27:26.716Z,95843
2015-07-12T01:27:45.232Z,95838
2015-07-12T01:28:03.700Z,95838
2015-07-12T01:28:22.076Z,95841
2015-07-12T01:28:40.686Z,95837
2015-07-12T01:28:59.170Z,95837
2015-07-12T01:29:17.095Z,95834
2015-07-12T01:29:35.720Z,95834
2015-07-12T01:29:54.517Z,95840
2015-07-12T01:30:12.972Z,95843
2015-07-12T01:30:31.613Z,95832
2015-07-12T01:30:50.253Z,95838
2015-07-12T01:31:09.066Z,95835
2015-07-12T01:31:27.865Z,95835
2015-07-12T01:31:46.271Z,95838
2015-07-12T01:32:04.724Z,95832
2015-07-12T01:32:23.445Z,95838
2015-07-12T01:32:41.913Z,95841
2015-07-12T01:33:00.398Z,95831
2015-07-12T01:33:18.913Z,95834
2015-07-12T01:33:37.478Z,95834
2015-07-12T01:33:56.056Z,95833
2015-07-12T01:34:14.447Z,95836
2015-07-12T01:34:32.964Z,95833
2015-07-12T01:34:51.386Z,95834
2015-07-12T01:35:09.949Z,95836
2015-07-12T01:35:28.464Z,95837
2015-07-12T01:35:46.904Z,95829
2015-07-12T01:36:05.294Z,95832
2015-07-12T01:36:23.716Z,95837
2015-07-12T01:36:42.140Z,95845
2015-07-12T01:37:00.781Z,95837
2015-07-12T01:37:19.453Z,95840
2015-07-12T01:37:37.986Z,95840
2015-07-12T01:37:56.783Z,95837
2015-07-12T01:38:15.345Z,95839
2015-07-12T01:38:33.720Z,95833
2015-07-12T01:38:52.208Z,95836
2015-07-12T01:39:10.723Z,95834
2015-07-12T01:39:29.145Z,95834
2015-07-12T01:39:47.661Z,95831
2015-07-12T01:40:06.162Z,95842
2015-07-12T01:40:24.615Z,95820
2015-07-12T01:40:43.068Z,95839
2015-07-12T01:41:01.554Z,95834
2015-07-12T01:41:20.195Z,95839
2015-07-12T01:41:39.367Z,95836
2015-07-12T01:41:57.822Z,95822
2015-07-12T01:42:16.338Z,95837
2015-07-12T01:42:34.728Z,95839
2015-07-12T01:42:53.103Z,95837
2015-07-12T01:43:11.575Z,95833
2015-07-12T01:43:29.950Z,95831
2015-07-12T01:43:48.309Z,95833
2015-07-12T01:44:05.716Z,95833
2015-07-12T01:44:24.343Z,95836
2015-07-12T01:44:42.718Z,95839
2015-07-12T01:45:01.093Z,95833
2015-07-12T01:45:19.704Z,95842
2015-07-12T01:45:38.251Z,95831
2015-07-12T01:45:56.767Z,95840
2015-07-12T01:46:15.188Z,95828
2015-07-12T01:46:33.752Z,95837
2015-07-12T01:46:52.127Z,95831
2015-07-12T01:47:10.721Z,95839
2015-07-12T01:47:29.192Z,95834
2015-07-12T01:47:47.817Z,95846
2015-07-12T01:48:06.364Z,95838
2015-07-12T01:48:25.038Z,95837
2015-07-12T01:48:43.632Z,95832
2015-07-12T01:49:02.101Z,95835
2015-07-12T01:49:20.523Z,95835
2015-07-12T01:49:38.993Z,95837
2015-07-12T01:49:57.368Z,95837
2015-07-12T01:50:15.853Z,95837
2015-07-12T01:50:34.462Z,95845
2015-07-12T01:50:52.839Z,95834
2015-07-12T01:51:11.370Z,95837
2015-07-12T01:51:29.902Z,95829
2015-07-12T01:51:48.264Z,95838
2015-07-12T01:52:06.873Z,95838
2015-07-12T01:52:25.233Z,95827
2015-07-12T01:52:43.608Z,95830
2015-07-12T01:53:02.140Z,95838
2015-07-12T01:53:20.734Z,95830
2015-07-12T01:53:39.093Z,95836
2015-07-12T01:53:57.454Z,95828
2015-07-12T01:54:16.079Z,95831
2015-07-12T01:54:34.611Z,95834
2015-07-12T01:54:53.064Z,95834
2015-07-12T01:55:11.488Z,95839
2015-07-12T01:55:30.253Z,95820
2015-07-12T01:55:49.144Z,95835
2015-07-12T01:56:07.569Z,95834
2015-07-12T01:56:26.178Z,95831
2015-07-12T01:56:44.600Z,95834
2015-07-12T01:57:03.084Z,95836
2015-07-12T01:57:21.461Z,95836
2015-07-12T01:57:40.086Z,95828
2015-07-12T01:57:58.508Z,95836
2015-07-12T01:58:16.870Z,95834
2015-07-12T01:58:35.245Z,95837
2015-07-12T01:58:53.713Z,95837
2015-07-12T01:59:12.213Z,95833
2015-07-12T01:59:30.965Z,95831
2015-07-12T01:59:49.512Z,95829
2015-07-12T02:00:07.247Z,95834
2015-07-12T02:00:25.639Z,95845
2015-07-12T02:00:44.155Z,95830
2015-07-12T02:01:02.858Z,95834
2015-07-12T02:01:21.421Z,95828
2015-07-12T02:01:40.126Z,95833
2015-07-12T02:01:58.594Z,95836
2015-07-12T02:02:17.110Z,95833
2015-07-12T02:02:35.503Z,95826
2015-07-12T02:02:53.956Z,95833
2015-07-12T02:03:12.768Z,95839
2015-07-12T02:03:31.190Z,95827
2015-07-12T02:03:49.848Z,95830
2015-07-12T02:04:08.505Z,95830
2015-07-12T02:04:27.005Z,95822
2015-07-12T02:04:45.507Z,95833
2015-07-12T02:05:03.975Z,95824
2015-07-12T02:05:22.600Z,95830
2015-07-12T02:05:40.960Z,95833
2015-07-12T02:05:59.587Z,95828
2015-07-12T02:06:17.977Z,95828
2015-07-12T02:06:36.337Z,95831
2015-07-12T02:06:54.761Z,95825
2015-07-12T02:07:13.370Z,95833
2015-07-12T02:07:31.901Z,95829
2015-07-12T02:07:50.464Z,95830
2015-07-12T02:08:09.138Z,95827
2015-07-12T02:08:27.653Z,95818
2015-07-12T02:08:45.622Z,95832
2015-07-12T02:09:04.062Z,95826
2015-07-12T02:09:22.499Z,95827
2015-07-12T02:09:40.858Z,95825
2015-07-12T02:09:59.233Z,95828
2015-07-12T02:10:17.595Z,95825
2015-07-12T02:10:36.032Z,95822
2015-07-12T02:10:54.423Z,95815
2015-07-12T02:11:12.863Z,95818
2015-07-12T02:11:31.363Z,95821
2015-07-12T02:11:49.926Z,95828
2015-07-12T02:12:08.504Z,95830
2015-07-12T02:12:26.975Z,95827
2015-07-12T02:12:45.334Z,95827
2015-07-12T02:13:03.944Z,95821
2015-07-12T02:13:22.617Z,95829
2015-07-12T02:13:41.008Z,95819
2015-07-12T02:13:59.492Z,95819
2015-07-12T02:14:18.071Z,95822
2015-07-12T02:14:36.573Z,95820
2015-07-12T02:14:55.073Z,95823
2015-07-12T02:15:13.854Z,95823
2015-07-12T02:15:32.293Z,95817
2015-07-12T02:15:50.715Z,95831
2015-07-12T02:16:09.106Z,95828
2015-07-12T02:16:27.903Z,95828
2015-07-12T02:16:46.420Z,95822
2015-07-12T02:17:04.967Z,95822
2015-07-12T02:17:23.389Z,95830
2015-07-12T02:17:41.969Z,95822
2015-07-12T02:18:00.516Z,95822
2015-07-12T02:18:19.219Z,95822
2015-07-12T02:18:37.784Z,95827
2015-07-12T02:18:56.502Z,95828
2015-07-12T02:19:14.987Z,95820
2015-07-12T02:19:33.518Z,95828
2015-07-12T02:19:52.208Z,95820
2015-07-12T02:20:10.614Z,95822
2015-07-12T02:20:29.114Z,95819
2015-07-12T02:20:47.708Z,95816
2015-07-12T02:21:06.210Z,95822
2015-07-12T02:21:24.725Z,95822
2015-07-12T02:21:43.131Z,95825
2015-07-12T02:22:01.680Z,95826
2015-07-12T02:22:20.352Z,95829
2015-07-12T02:22:38.993Z,95826
2015-07-12T02:22:57.430Z,95824
2015-07-12T02:23:15.917Z,95821
2015-07-12T02:23:34.401Z,95824
2015-07-12T02:23:53.042Z,95829
2015-07-12T02:24:11.637Z,95829
2015-07-12T02:24:30.075Z,95826
2015-07-12T02:24:48.481Z,95815
2015-07-12T02:25:06.919Z,95827
2015-07-12T02:25:24.811Z,95827
2015-07-12T02:25:43.389Z,95824
2015-07-12T02:26:01.889Z,95826
2015-07-12T02:26:20.298Z,95826
2015-07-12T02:26:40.329Z,95830
2015-07-12T02:26:59.001Z,95830
2015-07-12T02:27:17.551Z,95827
2015-07-12T02:27:35.926Z,95821
2015-07-12T02:27:54.457Z,95835
2015-07-12T02:28:12.832Z,95823
2015-07-12T02:28:31.396Z,95823
2015-07-12T02:28:49.771Z,95823
2015-07-12T02:29:08.240Z,95823
2015-07-12T02:29:26.881Z,95820
2015-07-12T02:29:45.647Z,95817
2015-07-12T02:30:04.272Z,95820
2015-07-12T02:30:22.741Z,95823
2015-07-12T02:30:41.166Z,95824
2015-07-12T02:30:59.572Z,95818
2015-07-12T02:31:17.963Z,95821
2015-07-12T02:31:36.338Z,95830
2015-07-12T02:31:54.949Z,95827
2015-07-12T02:32:13.371Z,95823
2015-07-12T02:32:31.809Z,95826
2015-07-12T02:32:50.264Z,95826
2015-07-12T02:33:08.670Z,95818
2015-07-12T02:33:27.186Z,95830
2015-07-12T02:33:45.654Z,95824
2015-07-12T02:34:04.063Z,95827
2015-07-12T02:34:22.422Z,95835
2015-07-12T02:34:41.125Z,95824
2015-07-12T02:34:59.596Z,95824
2015-07-12T02:35:18.065Z,95822
2015-07-12T02:35:36.471Z,95819
2015-07-12T02:35:54.877Z,95832
2015-07-12T02:36:13.396Z,95813
2015-07-12T02:36:31.755Z,95824
2015-07-12T02:36:50.521Z,95819
2015-07-12T02:37:09.022Z,95827
2015-07-12T02:37:27.506Z,95832
2015-07-12T02:37:45.991Z,95821
2015-07-12T02:38:04.584Z,95824
2015-07-12T02:38:23.352Z,95819
2015-07-12T02:38:41.774Z,95824
2015-07-12T02:39:00.164Z,95815
2015-07-12T02:39:18.026Z,95832
2015-07-12T02:39:36.573Z,95818
2015-07-12T02:39:55.120Z,95824
2015-07-12T02:40:13.495Z,95827
2015-07-12T02:40:32.059Z,95818
2015-07-12T02:40:50.715Z,95826
2015-07-12T02:41:09.200Z,95830
2015-07-12T02:41:27.750Z,95822
2015-07-12T02:41:46.140Z,95826
2015-07-12T02:42:04.656Z,95832
2015-07-12T02:42:23.140Z,95825
2015-07-12T02:42:41.752Z,95814
2015-07-12T02:43:00.345Z,95828
2015-07-12T02:43:18.720Z,95820
2015-07-12T02:43:37.207Z,95811
2015-07-12T02:43:55.863Z,95819
2015-07-12T02:44:14.269Z,95822
2015-07-12T02:44:32.832Z,95825
2015-07-12T02:44:51.318Z,95820
2015-07-12T02:45:09.834Z,95820
2015-07-12T02:45:28.381Z,95825
2015-07-12T02:45:46.914Z,95819
2015-07-12T02:46:05.289Z,95825
2015-07-12T02:46:23.789Z,95814
2015-07-12T02:46:42.164Z,95828
2015-07-12T02:47:00.681Z,95823
2015-07-12T02:47:19.322Z,95823
2015-07-12T02:47:37.838Z,95820
2015-07-12T02:47:56.230Z,95831
2015-07-12T02:48:14.902Z,95814
2015-07-12T02:48:33.137Z,95823
2015-07-12T02:48:51.590Z,95825
2015-07-12T02:49:09.982Z,95826
2015-07-12T02:49:28.435Z,95829
2015-07-12T02:49:46.857Z,95823
2015-07-12T02:50:05.407Z,95824
2015-07-12T02:50:23.876Z,95829
2015-07-12T02:50:42.407Z,95832
2015-07-12T02:51:01.126Z,95817
2015-07-12T02:51:19.658Z,95825
2015-07-12T02:51:38.033Z,95831
2015-07-12T02:51:56.502Z,95826
2015-07-12T02:52:14.957Z,95826
2015-07-12T02:52:33.566Z,95829
2015-07-12T02:52:52.285Z,95824
2015-07-12T02:53:10.897Z,95821
2015-07-12T02:53:29.537Z,95824
2015-07-12T02:53:47.975Z,95824
2015-07-12T02:54:06.381Z,95835
2015-07-12T02:54:24.789Z,95830
2015-07-12T02:54:43.211Z,95827
2015-07-12T02:55:01.805Z,95822
2015-07-12T02:55:20.352Z,95829
2015-07-12T02:55:38.964Z,95826
2015-07-12T02:55:57.417Z,95826
2015-07-12T02:56:16.308Z,95818
2015-07-12T02:56:34.919Z,95827
2015-07-12T02:56:53.435Z,95829
2015-07-12T02:57:11.950Z,95821
2015-07-12T02:57:30.654Z,95821
2015-07-12T02:57:49.374Z,95829
2015-07-12T02:58:07.812Z,95829
2015-07-12T02:58:26.327Z,95835
2015-07-12T02:58:44.767Z,95820
2015-07-12T02:59:03.314Z,95817
2015-07-12T02:59:21.704Z,95822
2015-07-12T02:59:40.283Z,95831
2015-07-12T02:59:58.753Z,95823
2015-07-12T03:00:17.160Z,95827
2015-07-12T03:00:35.816Z,95832
2015-07-12T03:00:54.443Z,95821
2015-07-12T03:01:12.912Z,95832
2015-07-12T03:01:31.333Z,95832
2015-07-12T03:01:49.693Z,95832
2015-07-12T03:02:08.273Z,95837
2015-07-12T03:02:26.898Z,95834
2015-07-12T03:02:45.570Z,95831
2015-07-12T03:03:03.978Z,95831
2015-07-12T03:03:22.478Z,95826
2015-07-12T03:03:41.009Z,95832
2015-07-12T03:03:59.447Z,95831
2015-07-12T03:04:17.824Z,95837
2015-07-12T03:04:36.246Z,95831
2015-07-12T03:04:54.746Z,95832
2015-07-12T03:05:13.217Z,95840
2015-07-12T03:05:31.874Z,95832
2015-07-12T03:05:50.327Z,95835
2015-07-12T03:06:08.967Z,95830
2015-07-12T03:06:27.641Z,95832
2015-07-12T03:06:46.048Z,95837
2015-07-12T03:07:04.798Z,95835
2015-07-12T03:07:23.283Z,95829
2015-07-12T03:07:41.892Z,95830
2015-07-12T03:08:00.330Z,95821
2015-07-12T03:08:18.939Z,95829
2015-07-12T03:08:37.332Z,95835
2015-07-12T03:08:55.207Z,95849
2015-07-12T03:09:13.707Z,95837
2015-07-12T03:09:31.929Z,95834
2015-07-12T03:09:50.538Z,95843
2015-07-12T03:10:09.022Z,95835
2015-07-12T03:10:27.382Z,95830
2015-07-12T03:10:45.851Z,95843
2015-07-12T03:11:04.211Z,95835
2015-07-12T03:11:23.070Z,95829
2015-07-12T03:11:41.776Z,95843
2015-07-12T03:12:00.183Z,95835
2015-07-12T03:12:18.542Z,95838
2015-07-12T03:12:37.167Z,95839
2015-07-12T03:12:55.653Z,95836
2015-07-12T03:13:14.106Z,95830
2015-07-12T03:13:32.778Z,95831
2015-07-12T03:13:51.468Z,95839
2015-07-12T03:14:09.874Z,95836
2015-07-12T03:14:28.296Z,95833
2015-07-12T03:14:46.765Z,95836
2015-07-12T03:15:05.345Z,95838
2015-07-12T03:15:23.798Z,95833
2015-07-12T03:15:42.220Z,95835
2015-07-12T03:16:00.659Z,95843
2015-07-12T03:16:19.206Z,95837
2015-07-12T03:16:37.628Z,95846
2015-07-12T03:16:56.362Z,95836
2015-07-12T03:17:15.005Z,95836
2015-07-12T03:17:33.380Z,95838
2015-07-12T03:17:51.927Z,95836
2015-07-12T03:18:10.351Z,95839
2015-07-12T03:18:28.757Z,95833
2015-07-12T03:18:47.210Z,95839
2015-07-12T03:19:05.741Z,95847
2015-07-12T03:19:24.290Z,95841
2015-07-12T03:19:42.681Z,95838
2015-07-12T03:20:01.072Z,95841
2015-07-12T03:20:19.542Z,95841
2015-07-12T03:20:37.964Z,95843
2015-07-12T03:20:56.511Z,95841
2015-07-12T03:21:14.870Z,95841
2015-07-12T03:21:33.341Z,95841
2015-07-12T03:21:52.060Z,95841
2015-07-12T03:22:10.669Z,95844
2015-07-12T03:22:29.047Z,95844
2015-07-12T03:22:47.657Z,95844
2015-07-12T03:23:06.235Z,95838
2015-07-12T03:23:24.735Z,95838
2015-07-12T03:23:43.206Z,95841
2015-07-12T03:24:01.659Z,95841
2015-07-12T03:24:20.065Z,95843
2015-07-12T03:24:38.473Z,95846
2015-07-12T03:24:57.067Z,95849
2015-07-12T03:25:15.583Z,95846
2015-07-12T03:25:33.989Z,95849
2015-07-12T03:25:52.381Z,95843
2015-07-12T03:26:10.913Z,95841
2015-07-12T03:26:29.288Z,95843
2015-07-12T03:26:47.993Z,95841
2015-07-12T03:27:06.633Z,95842
2015-07-12T03:27:25.196Z,95839
2015-07-12T03:27:43.853Z,95850
2015-07-12T03:28:02.259Z,95844
2015-07-12T03:28:20.728Z,95851
2015-07-12T03:28:39.338Z,95851
2015-07-12T03:28:57.919Z,95853
2015-07-12T03:29:16.372Z,95845
2015-07-12T03:29:34.809Z,95848
2015-07-12T03:29:53.372Z,95850
2015-07-12T03:30:11.936Z,95851
2015-07-12T03:30:30.514Z,95848
2015-07-12T03:30:48.921Z,95840
2015-07-12T03:31:07.532Z,95848
2015-07-12T03:31:26.173Z,95839
2015-07-12T03:31:44.798Z,95850
2015-07-12T03:32:03.456Z,95851
2015-07-12T03:32:22.018Z,95846
2015-07-12T03:32:40.550Z,95852
2015-07-12T03:32:59.315Z,95845
2015-07-12T03:33:17.739Z,95845
2015-07-12T03:33:36.427Z,95851
2015-07-12T03:33:55.052Z,95854
2015-07-12T03:34:13.491Z,95851
2015-07-12T03:34:32.397Z,95848
2015-07-12T03:34:50.929Z,95848
2015-07-12T03:35:09.413Z,95862
2015-07-12T03:35:27.821Z,95851
2015-07-12T03:35:46.228Z,95848
2015-07-12T03:36:04.634Z,95842
2015-07-12T03:36:23.196Z,95851
2015-07-12T03:36:41.808Z,95842
2015-07-12T03:37:00.292Z,95848
2015-07-12T03:37:18.745Z,95857
2015-07-12T03:37:37.232Z,95859
2015-07-12T03:37:55.638Z,95848
2015-07-12T03:38:14.028Z,95851
2015-07-12T03:38:32.653Z,95845
2015-07-12T03:38:51.312Z,95840
2015-07-12T03:39:09.780Z,95851
2015-07-12T03:39:28.484Z,95847
2015-07-12T03:39:47.080Z,95847
2015-07-12T03:40:05.705Z,95848
2015-07-12T03:40:24.221Z,95850
2015-07-12T03:40:42.627Z,95844
2015-07-12T03:41:00.989Z,95847
2015-07-12T03:41:18.739Z,95847
2015-07-12T03:41:37.332Z,95842
2015-07-12T03:41:55.694Z,95850
2015-07-12T03:42:14.178Z,95848
2015-07-12T03:42:32.647Z,95848
2015-07-12T03:42:51.006Z,95857
2015-07-12T03:43:09.446Z,95865
2015-07-12T03:43:27.914Z,95845
2015-07-12T03:43:46.274Z,95853
2015-07-12T03:44:04.822Z,95857
2015-07-12T03:44:23.212Z,95848
2015-07-12T03:44:41.697Z,95854
2015-07-12T03:45:00.212Z,95845
2015-07-12T03:45:18.589Z,95845
2015-07-12T03:45:37.027Z,95848
2015-07-12T03:45:55.558Z,95840
2015-07-12T03:46:13.967Z,95854
2015-07-12T03:46:32.514Z,95846
2015-07-12T03:46:50.889Z,95851
2015-07-12T03:47:09.514Z,95848
2015-07-12T03:47:27.735Z,95854
2015-07-12T03:47:46.282Z,95852
2015-07-12T03:48:04.969Z,95852
2015-07-12T03:48:23.674Z,95843
2015-07-12T03:48:42.143Z,95851
2015-07-12T03:49:00.534Z,95839
2015-07-12T03:49:19.003Z,95845
2015-07-12T03:49:37.520Z,95854
2015-07-12T03:49:56.176Z,95851
2015-07-12T03:50:14.583Z,95851
2015-07-12T03:50:33.288Z,95845
2015-07-12T03:50:52.132Z,95851
2015-07-12T03:51:10.741Z,95851
2015-07-12T03:51:29.134Z,95854
2015-07-12T03:51:47.602Z,95856
2015-07-12T03:52:06.071Z,95851
2015-07-12T03:52:24.493Z,95853
2015-07-12T03:52:43.137Z,95842
2015-07-12T03:53:01.558Z,95848
2015-07-12T03:53:19.918Z,95848
2015-07-12T03:53:38.387Z,95851
2015-07-12T03:53:56.747Z,95850
2015-07-12T03:54:15.169Z,95850
2015-07-12T03:54:34.200Z,95861
2015-07-12T03:54:52.984Z,95850
2015-07-12T03:55:11.391Z,95850
2015-07-12T03:55:29.797Z,95856
2015-07-12T03:55:48.281Z,95850
2015-07-12T03:56:07.111Z,95850
2015-07-12T03:56:25.721Z,95847
2015-07-12T03:56:44.330Z,95853
2015-07-12T03:57:03.034Z,95852
2015-07-12T03:57:21.769Z,95855
2015-07-12T03:57:40.315Z,95864
2015-07-12T03:57:58.943Z,95850